sensor_id;sensor_type;location;lat;lon;timestamp;pressure;altitude;pressure_sealevel;temperature;humidity
21877;BME280;11103;43.788;23.710;2023-05-12T00:02:15;-12709.66;;;-144.67;100.00
21877;BME280;11103;43.788;23.710;2023-05-12T00:04:41;-12709.66;;;-144.67;100.00
21877;BME280;11103;43.788;23.710;2023-05-12T00:07:07;-12709.66;;;-144.67;100.00
21877;BME280;11103;43.788;23.710;2023-05-12T00:09:33;-12218.00;;;-144.67;100.00
21877;BME280;11103;43.788;23.710;2023-05-12T00:11:58;-13446.97;;;-144.67;100.00
21877;BME280;11103;43.788;23.710;2023-05-12T00:14:24;-13692.72;;;-144.67;100.00
21877;BME280;11103;43.788;23.710;2023-05-12T00:16:49;-14184.13;;;-144.67;100.00
21877;BME280;11103;43.788;23.710;2023-05-12T00:19:19;-14675.47;;;-144.67;100.00
21877;BME280;11103;43.788;23.710;2023-05-12T00:21:45;-14675.47;;;-144.67;100.00
21877;BME280;11103;43.788;23.710;2023-05-12T00:24:11;-14675.47;;;-144.67;100.00
21877;BME280;11103;43.788;23.710;2023-05-12T00:26:36;-13938.44;;;-144.67;100.00
21877;BME280;11103;43.788;23.710;2023-05-12T00:29:02;-13201.22;;;-144.67;100.00
21877;BME280;11103;43.788;23.710;2023-05-12T00:31:30;-13446.97;;;-144.67;100.00
21877;BME280;11103;43.788;23.710;2023-05-12T00:33:56;-13446.97;;;-144.67;100.00
21877;BME280;11103;43.788;23.710;2023-05-12T00:36:21;-13938.44;;;-144.67;100.00
21877;BME280;11103;43.788;23.710;2023-05-12T00:38:47;-13938.44;;;-144.67;100.00
21877;BME280;11103;43.788;23.710;2023-05-12T00:41:12;-13938.44;;;-144.67;100.00
21877;BME280;11103;43.788;23.710;2023-05-12T00:43:38;-14429.81;;;-144.67;100.00
21877;BME280;11103;43.788;23.710;2023-05-12T00:46:04;-14184.13;;;-144.67;100.00
21877;BME280;11103;43.788;23.710;2023-05-12T00:48:31;-14184.13;;;-144.67;100.00
21877;BME280;11103;43.788;23.710;2023-05-12T00:50:57;-13938.44;;;-144.67;100.00
21877;BME280;11103;43.788;23.710;2023-05-12T00:53:23;-12955.44;;;-144.67;100.00
21877;BME280;11103;43.788;23.710;2023-05-12T00:55:49;-14184.13;;;-144.67;100.00
21877;BME280;11103;43.788;23.710;2023-05-12T00:58:15;-14429.81;;;-144.67;100.00
21877;BME280;11103;43.788;23.710;2023-05-12T01:00:40;-14921.13;;;-144.67;100.00
21877;BME280;11103;43.788;23.710;2023-05-12T01:03:05;-14921.13;;;-144.67;100.00
21877;BME280;11103;43.788;23.710;2023-05-12T01:05:37;-14922.56;;;-144.67;100.00
21877;BME280;11103;43.788;23.710;2023-05-12T01:08:04;-14921.13;;;-144.67;100.00
21877;BME280;11103;43.788;23.710;2023-05-12T01:10:30;-14922.56;;;-144.67;100.00
21877;BME280;11103;43.788;23.710;2023-05-12T01:12:55;-14922.56;;;-144.67;100.00
21877;BME280;11103;43.788;23.710;2023-05-12T01:15:21;-14922.56;;;-144.67;100.00
21877;BME280;11103;43.788;23.710;2023-05-12T01:17:52;-14921.13;;;-144.67;100.00
21877;BME280;11103;43.788;23.710;2023-05-12T01:20:20;-14921.13;;;-144.67;100.00
21877;BME280;11103;43.788;23.710;2023-05-12T01:22:47;-14922.56;;;-144.67;100.00
21877;BME280;11103;43.788;23.710;2023-05-12T01:25:14;-14922.56;;;-144.67;100.00
21877;BME280;11103;43.788;23.710;2023-05-12T01:27:40;-14922.56;;;-144.67;100.00
21877;BME280;11103;43.788;23.710;2023-05-12T01:30:07;-14922.56;;;-144.67;100.00
21877;BME280;11103;43.788;23.710;2023-05-12T01:32:34;-14922.56;;;-144.67;100.00
21877;BME280;11103;43.788;23.710;2023-05-12T01:35:00;-14922.56;;;-144.67;100.00
21877;BME280;11103;43.788;23.710;2023-05-12T01:37:26;-14922.56;;;-144.67;100.00
21877;BME280;11103;43.788;23.710;2023-05-12T01:39:52;-14922.56;;;-144.67;100.00
21877;BME280;11103;43.788;23.710;2023-05-12T01:42:17;-14922.56;;;-144.67;100.00
21877;BME280;11103;43.788;23.710;2023-05-12T01:44:43;-14922.56;;;-144.67;100.00
21877;BME280;11103;43.788;23.710;2023-05-12T01:47:08;-14922.56;;;-144.67;100.00
21877;BME280;11103;43.788;23.710;2023-05-12T01:49:38;-14922.56;;;-144.67;100.00
21877;BME280;11103;43.788;23.710;2023-05-12T01:52:04;-14922.56;;;-144.67;100.00
21877;BME280;11103;43.788;23.710;2023-05-12T01:54:29;-14922.56;;;-144.67;100.00
21877;BME280;11103;43.788;23.710;2023-05-12T01:56:55;-14922.56;;;-144.67;100.00
21877;BME280;11103;43.788;23.710;2023-05-12T01:59:20;-14922.56;;;-144.67;100.00
21877;BME280;11103;43.788;23.710;2023-05-12T02:01:45;-14922.56;;;-144.67;100.00
21877;BME280;11103;43.788;23.710;2023-05-12T02:04:11;-14922.56;;;-144.67;100.00
21877;BME280;11103;43.788;23.710;2023-05-12T02:06:36;-14922.56;;;-144.67;100.00
21877;BME280;11103;43.788;23.710;2023-05-12T02:09:02;-14922.56;;;-144.67;100.00
21877;BME280;11103;43.788;23.710;2023-05-12T02:11:27;-14922.56;;;-144.67;100.00
21877;BME280;11103;43.788;23.710;2023-05-12T02:13:53;-14922.56;;;-144.67;100.00
21877;BME280;11103;43.788;23.710;2023-05-12T02:16:18;-14922.56;;;-144.67;100.00
21877;BME280;11103;43.788;23.710;2023-05-12T02:18:44;-14922.56;;;-144.67;100.00
21877;BME280;11103;43.788;23.710;2023-05-12T02:21:09;-14922.56;;;-144.67;100.00
21877;BME280;11103;43.788;23.710;2023-05-12T02:23:35;-14922.56;;;-144.67;100.00
21877;BME280;11103;43.788;23.710;2023-05-12T02:26:00;-14922.56;;;-144.67;100.00
21877;BME280;11103;43.788;23.710;2023-05-12T02:28:25;-14922.56;;;-144.67;100.00
21877;BME280;11103;43.788;23.710;2023-05-12T02:30:51;-14922.56;;;-144.67;100.00
21877;BME280;11103;43.788;23.710;2023-05-12T02:33:18;-14922.56;;;-144.67;100.00
21877;BME280;11103;43.788;23.710;2023-05-12T02:35:44;-14922.56;;;-144.67;100.00
21877;BME280;11103;43.788;23.710;2023-05-12T02:38:10;-14922.56;;;-144.67;100.00
21877;BME280;11103;43.788;23.710;2023-05-12T02:40:36;-14922.56;;;-144.67;100.00
21877;BME280;11103;43.788;23.710;2023-05-12T02:43:02;-14922.56;;;-144.67;100.00
21877;BME280;11103;43.788;23.710;2023-05-12T02:45:27;-14922.56;;;-144.67;100.00
21877;BME280;11103;43.788;23.710;2023-05-12T02:47:53;-14922.56;;;-144.67;100.00
21877;BME280;11103;43.788;23.710;2023-05-12T02:50:18;-14922.56;;;-144.67;100.00
21877;BME280;11103;43.788;23.710;2023-05-12T02:52:46;-14922.56;;;-144.67;100.00
21877;BME280;11103;43.788;23.710;2023-05-12T02:55:11;-14922.56;;;-144.67;100.00
21877;BME280;11103;43.788;23.710;2023-05-12T02:57:37;-14922.56;;;-144.67;100.00
21877;BME280;11103;43.788;23.710;2023-05-12T03:00:03;-14922.56;;;-144.67;100.00
21877;BME280;11103;43.788;23.710;2023-05-12T03:02:33;-14922.56;;;-144.67;100.00
21877;BME280;11103;43.788;23.710;2023-05-12T03:04:58;-14922.56;;;-144.67;100.00
21877;BME280;11103;43.788;23.710;2023-05-12T03:07:24;-14922.56;;;-144.67;100.00
21877;BME280;11103;43.788;23.710;2023-05-12T03:09:49;-14922.56;;;-144.67;100.00
21877;BME280;11103;43.788;23.710;2023-05-12T03:12:14;-14922.56;;;-144.67;100.00
21877;BME280;11103;43.788;23.710;2023-05-12T03:14:40;-14922.56;;;-144.67;100.00
21877;BME280;11103;43.788;23.710;2023-05-12T03:17:06;-14922.56;;;-144.67;100.00
21877;BME280;11103;43.788;23.710;2023-05-12T03:19:31;-14922.56;;;-144.67;100.00
21877;BME280;11103;43.788;23.710;2023-05-12T03:21:57;-14922.56;;;-144.67;100.00
21877;BME280;11103;43.788;23.710;2023-05-12T03:24:22;-14922.56;;;-144.67;100.00
21877;BME280;11103;43.788;23.710;2023-05-12T03:26:47;-14922.56;;;-144.67;100.00
21877;BME280;11103;43.788;23.710;2023-05-12T03:29:13;-14922.56;;;-144.67;100.00
21877;BME280;11103;43.788;23.710;2023-05-12T03:31:39;-14922.56;;;-144.67;100.00
21877;BME280;11103;43.788;23.710;2023-05-12T03:34:04;-14922.56;;;-144.67;100.00
21877;BME280;11103;43.788;23.710;2023-05-12T03:36:30;-14922.56;;;-144.67;100.00
21877;BME280;11103;43.788;23.710;2023-05-12T03:38:55;-14922.56;;;-144.67;100.00
21877;BME280;11103;43.788;23.710;2023-05-12T03:41:21;-14922.56;;;-144.67;100.00
21877;BME280;11103;43.788;23.710;2023-05-12T03:43:47;-14922.56;;;-144.67;100.00
21877;BME280;11103;43.788;23.710;2023-05-12T03:46:12;-14922.56;;;-144.67;100.00
21877;BME280;11103;43.788;23.710;2023-05-12T03:48:37;-14922.56;;;-144.67;100.00
21877;BME280;11103;43.788;23.710;2023-05-12T03:51:03;-14922.56;;;-144.67;100.00
21877;BME280;11103;43.788;23.710;2023-05-12T03:53:28;-14922.56;;;-144.67;100.00
21877;BME280;11103;43.788;23.710;2023-05-12T03:55:54;-14922.56;;;-144.67;100.00
21877;BME280;11103;43.788;23.710;2023-05-12T03:58:21;-14922.56;;;-144.67;100.00
21877;BME280;11103;43.788;23.710;2023-05-12T04:00:47;-14922.56;;;-144.67;100.00
21877;BME280;11103;43.788;23.710;2023-05-12T04:03:14;-14922.56;;;-144.67;100.00
21877;BME280;11103;43.788;23.710;2023-05-12T04:05:40;-14922.56;;;-144.67;100.00
21877;BME280;11103;43.788;23.710;2023-05-12T04:08:09;-14922.56;;;-144.67;100.00
21877;BME280;11103;43.788;23.710;2023-05-12T04:10:39;-14922.56;;;-144.67;100.00
21877;BME280;11103;43.788;23.710;2023-05-12T04:13:05;-14922.56;;;-144.67;100.00
21877;BME280;11103;43.788;23.710;2023-05-12T04:15:33;-14922.56;;;-144.67;100.00
21877;BME280;11103;43.788;23.710;2023-05-12T04:17:58;-14922.56;;;-144.67;100.00
21877;BME280;11103;43.788;23.710;2023-05-12T04:20:23;-14922.56;;;-144.67;100.00
21877;BME280;11103;43.788;23.710;2023-05-12T04:22:49;-14922.56;;;-144.67;100.00
21877;BME280;11103;43.788;23.710;2023-05-12T04:25:15;-14922.56;;;-144.67;100.00
21877;BME280;11103;43.788;23.710;2023-05-12T04:27:41;-14922.56;;;-144.67;100.00
21877;BME280;11103;43.788;23.710;2023-05-12T04:30:06;-14922.56;;;-144.67;100.00
21877;BME280;11103;43.788;23.710;2023-05-12T04:32:32;-14922.56;;;-144.67;100.00
21877;BME280;11103;43.788;23.710;2023-05-12T04:34:57;-14922.56;;;-144.67;100.00
21877;BME280;11103;43.788;23.710;2023-05-12T04:37:23;-14922.56;;;-144.67;100.00
21877;BME280;11103;43.788;23.710;2023-05-12T04:39:48;-14922.56;;;-144.67;100.00
21877;BME280;11103;43.788;23.710;2023-05-12T04:42:14;-14922.56;;;-144.67;100.00
21877;BME280;11103;43.788;23.710;2023-05-12T04:44:39;-14922.56;;;-144.67;100.00
21877;BME280;11103;43.788;23.710;2023-05-12T04:47:05;-14922.56;;;-144.67;100.00
21877;BME280;11103;43.788;23.710;2023-05-12T04:49:30;-14922.56;;;-144.67;100.00
21877;BME280;11103;43.788;23.710;2023-05-12T04:51:55;-14922.56;;;-144.67;100.00
21877;BME280;11103;43.788;23.710;2023-05-12T04:54:21;-14922.56;;;-144.67;100.00
21877;BME280;11103;43.788;23.710;2023-05-12T04:56:46;-14922.56;;;-144.67;100.00
21877;BME280;11103;43.788;23.710;2023-05-12T04:59:12;-14922.56;;;-144.67;100.00
21877;BME280;11103;43.788;23.710;2023-05-12T05:01:40;-14922.56;;;-144.67;100.00
21877;BME280;11103;43.788;23.710;2023-05-12T05:04:07;-14922.56;;;-144.67;100.00
21877;BME280;11103;43.788;23.710;2023-05-12T05:06:32;-14922.56;;;-144.67;100.00
21877;BME280;11103;43.788;23.710;2023-05-12T05:08:57;-14922.56;;;-144.67;100.00
21877;BME280;11103;43.788;23.710;2023-05-12T05:11:23;-14922.56;;;-144.67;100.00
21877;BME280;11103;43.788;23.710;2023-05-12T05:13:48;-14922.56;;;-144.67;100.00
21877;BME280;11103;43.788;23.710;2023-05-12T05:16:14;-14922.56;;;-144.67;100.00
21877;BME280;11103;43.788;23.710;2023-05-12T05:18:39;-14922.56;;;-144.67;100.00
21877;BME280;11103;43.788;23.710;2023-05-12T05:21:12;-14922.56;;;-144.67;100.00
21877;BME280;11103;43.788;23.710;2023-05-12T05:23:38;-14922.56;;;-144.67;100.00
21877;BME280;11103;43.788;23.710;2023-05-12T05:26:05;-14922.56;;;-144.67;100.00
21877;BME280;11103;43.788;23.710;2023-05-12T05:28:30;-14922.56;;;-144.67;100.00
21877;BME280;11103;43.788;23.710;2023-05-12T05:30:55;-14922.56;;;-144.67;100.00
21877;BME280;11103;43.788;23.710;2023-05-12T05:33:21;-14922.56;;;-144.67;100.00
21877;BME280;11103;43.788;23.710;2023-05-12T05:35:46;-14922.56;;;-144.67;100.00
21877;BME280;11103;43.788;23.710;2023-05-12T05:38:12;-14922.56;;;-144.67;100.00
21877;BME280;11103;43.788;23.710;2023-05-12T05:40:38;-14922.56;;;-144.67;100.00
21877;BME280;11103;43.788;23.710;2023-05-12T05:43:03;-14922.56;;;-144.67;100.00
21877;BME280;11103;43.788;23.710;2023-05-12T05:45:28;-14922.56;;;-144.67;100.00
21877;BME280;11103;43.788;23.710;2023-05-12T05:47:54;-14922.56;;;-144.67;100.00
21877;BME280;11103;43.788;23.710;2023-05-12T05:50:19;-14922.56;;;-144.67;100.00
21877;BME280;11103;43.788;23.710;2023-05-12T05:52:45;-14922.56;;;-144.67;100.00
21877;BME280;11103;43.788;23.710;2023-05-12T05:55:10;-14922.56;;;-144.67;100.00
21877;BME280;11103;43.788;23.710;2023-05-12T05:57:35;-14922.56;;;-144.67;100.00
21877;BME280;11103;43.788;23.710;2023-05-12T06:00:02;-14922.56;;;-144.67;100.00
21877;BME280;11103;43.788;23.710;2023-05-12T06:02:29;-14922.56;;;-144.67;100.00
21877;BME280;11103;43.788;23.710;2023-05-12T06:04:56;-14922.56;;;-144.67;100.00
21877;BME280;11103;43.788;23.710;2023-05-12T06:07:21;-14922.56;;;-144.67;100.00
21877;BME280;11103;43.788;23.710;2023-05-12T06:09:47;-14922.56;;;-144.67;100.00
21877;BME280;11103;43.788;23.710;2023-05-12T06:12:12;-14922.56;;;-144.67;100.00
21877;BME280;11103;43.788;23.710;2023-05-12T06:14:38;-14922.56;;;-144.67;100.00
21877;BME280;11103;43.788;23.710;2023-05-12T06:17:03;-14922.56;;;-144.67;100.00
21877;BME280;11103;43.788;23.710;2023-05-12T06:19:29;-14922.56;;;-144.67;100.00
21877;BME280;11103;43.788;23.710;2023-05-12T06:21:54;-14922.56;;;-144.67;100.00
21877;BME280;11103;43.788;23.710;2023-05-12T06:24:19;-14922.56;;;-144.67;100.00
21877;BME280;11103;43.788;23.710;2023-05-12T06:26:45;-14922.56;;;-144.67;100.00
21877;BME280;11103;43.788;23.710;2023-05-12T06:29:10;-14922.56;;;-144.67;100.00
21877;BME280;11103;43.788;23.710;2023-05-12T06:31:35;-14922.56;;;-144.67;100.00
21877;BME280;11103;43.788;23.710;2023-05-12T06:34:01;-14922.56;;;-144.67;100.00
21877;BME280;11103;43.788;23.710;2023-05-12T06:36:27;-14922.56;;;-144.67;100.00
21877;BME280;11103;43.788;23.710;2023-05-12T06:38:54;-14922.56;;;-144.67;100.00
21877;BME280;11103;43.788;23.710;2023-05-12T06:41:19;-14922.56;;;-144.67;100.00
21877;BME280;11103;43.788;23.710;2023-05-12T06:43:46;-14922.56;;;-144.67;100.00
21877;BME280;11103;43.788;23.710;2023-05-12T06:46:11;-14922.56;;;-144.67;100.00
21877;BME280;11103;43.788;23.710;2023-05-12T06:48:36;-14922.56;;;-144.67;100.00
21877;BME280;11103;43.788;23.710;2023-05-12T06:51:02;-14922.56;;;-144.67;100.00
21877;BME280;11103;43.788;23.710;2023-05-12T06:53:28;-14922.56;;;-144.67;100.00
21877;BME280;11103;43.788;23.710;2023-05-12T06:55:54;-14922.56;;;-144.67;100.00
21877;BME280;11103;43.788;23.710;2023-05-12T06:58:19;-14922.56;;;-144.67;100.00
21877;BME280;11103;43.788;23.710;2023-05-12T07:00:46;-14922.56;;;-144.67;100.00
21877;BME280;11103;43.788;23.710;2023-05-12T07:03:12;-14922.56;;;-144.67;100.00
21877;BME280;11103;43.788;23.710;2023-05-12T07:05:37;-14922.56;;;-144.67;100.00
21877;BME280;11103;43.788;23.710;2023-05-12T07:08:04;-14922.56;;;-144.67;100.00
21877;BME280;11103;43.788;23.710;2023-05-12T07:10:29;-14922.56;;;-144.67;100.00
21877;BME280;11103;43.788;23.710;2023-05-12T07:12:57;-14922.56;;;-144.67;100.00
21877;BME280;11103;43.788;23.710;2023-05-12T07:15:22;-14922.56;;;-144.67;100.00
21877;BME280;11103;43.788;23.710;2023-05-12T07:17:47;-14922.56;;;-144.67;100.00
21877;BME280;11103;43.788;23.710;2023-05-12T07:20:13;-14922.56;;;-144.67;100.00
21877;BME280;11103;43.788;23.710;2023-05-12T07:22:38;-14922.56;;;-144.67;100.00
21877;BME280;11103;43.788;23.710;2023-05-12T07:25:04;-14922.56;;;-144.67;100.00
21877;BME280;11103;43.788;23.710;2023-05-12T07:27:30;-14922.56;;;-144.67;100.00
21877;BME280;11103;43.788;23.710;2023-05-12T07:29:56;-14922.56;;;-144.67;100.00
21877;BME280;11103;43.788;23.710;2023-05-12T07:32:21;-14922.56;;;-144.67;100.00
21877;BME280;11103;43.788;23.710;2023-05-12T07:34:47;-14922.56;;;-144.67;100.00
21877;BME280;11103;43.788;23.710;2023-05-12T07:37:12;-14922.56;;;-144.67;100.00
21877;BME280;11103;43.788;23.710;2023-05-12T07:39:37;-14922.56;;;-144.67;100.00
21877;BME280;11103;43.788;23.710;2023-05-12T07:42:04;-14922.56;;;-144.67;100.00
21877;BME280;11103;43.788;23.710;2023-05-12T07:44:29;-14922.56;;;-144.67;100.00
21877;BME280;11103;43.788;23.710;2023-05-12T07:46:55;-14922.56;;;-144.67;100.00
21877;BME280;11103;43.788;23.710;2023-05-12T07:49:20;-14922.56;;;-144.67;100.00
21877;BME280;11103;43.788;23.710;2023-05-12T07:51:47;-14922.56;;;-144.67;100.00
21877;BME280;11103;43.788;23.710;2023-05-12T07:54:13;-14922.56;;;-144.67;100.00
21877;BME280;11103;43.788;23.710;2023-05-12T07:56:38;-14922.56;;;-144.67;100.00
21877;BME280;11103;43.788;23.710;2023-05-12T07:59:03;-14922.56;;;-144.67;100.00
21877;BME280;11103;43.788;23.710;2023-05-12T08:01:29;-14922.56;;;-144.67;100.00
21877;BME280;11103;43.788;23.710;2023-05-12T08:03:54;-14922.56;;;-144.67;100.00
21877;BME280;11103;43.788;23.710;2023-05-12T08:06:20;-14922.56;;;-144.67;100.00
21877;BME280;11103;43.788;23.710;2023-05-12T08:08:45;-14922.56;;;-144.67;100.00
21877;BME280;11103;43.788;23.710;2023-05-12T08:11:11;-14922.56;;;-144.67;100.00
21877;BME280;11103;43.788;23.710;2023-05-12T08:13:37;-14922.56;;;-144.67;100.00
21877;BME280;11103;43.788;23.710;2023-05-12T08:16:03;-14922.56;;;-144.67;100.00
21877;BME280;11103;43.788;23.710;2023-05-12T08:18:28;-14922.56;;;-144.67;100.00
21877;BME280;11103;43.788;23.710;2023-05-12T08:20:54;-14922.56;;;-144.67;100.00
21877;BME280;11103;43.788;23.710;2023-05-12T08:23:19;-14922.56;;;-144.67;100.00
21877;BME280;11103;43.788;23.710;2023-05-12T08:25:45;-14922.56;;;-144.67;100.00
21877;BME280;11103;43.788;23.710;2023-05-12T08:28:12;-14922.56;;;-144.67;100.00
21877;BME280;11103;43.788;23.710;2023-05-12T08:30:38;-14922.56;;;-144.67;100.00
21877;BME280;11103;43.788;23.710;2023-05-12T08:33:03;-14922.56;;;-144.67;100.00
21877;BME280;11103;43.788;23.710;2023-05-12T08:35:29;-14922.56;;;-144.67;100.00
21877;BME280;11103;43.788;23.710;2023-05-12T08:37:55;-14922.56;;;-144.67;100.00
21877;BME280;11103;43.788;23.710;2023-05-12T08:40:23;-14922.56;;;-144.67;100.00
21877;BME280;11103;43.788;23.710;2023-05-12T08:45:29;-14922.56;;;-144.67;100.00
21877;BME280;11103;43.788;23.710;2023-05-12T08:47:55;-14922.56;;;-144.67;100.00
21877;BME280;11103;43.788;23.710;2023-05-12T08:50:23;-14922.56;;;-144.67;100.00
21877;BME280;11103;43.788;23.710;2023-05-12T08:52:50;-14922.56;;;-144.67;100.00
21877;BME280;11103;43.788;23.710;2023-05-12T08:55:16;-14922.56;;;-144.67;100.00
21877;BME280;11103;43.788;23.710;2023-05-12T08:57:43;-14922.56;;;-144.67;100.00
21877;BME280;11103;43.788;23.710;2023-05-12T09:00:13;-14922.56;;;-144.67;100.00
21877;BME280;11103;43.788;23.710;2023-05-12T09:02:39;-14922.56;;;-144.67;100.00
21877;BME280;11103;43.788;23.710;2023-05-12T09:05:08;-14922.56;;;-144.67;100.00
21877;BME280;11103;43.788;23.710;2023-05-12T09:07:35;-14922.56;;;-144.67;100.00
21877;BME280;11103;43.788;23.710;2023-05-12T09:10:02;-14922.56;;;-144.67;100.00
21877;BME280;11103;43.788;23.710;2023-05-12T09:12:30;-14922.56;;;-144.67;100.00
21877;BME280;11103;43.788;23.710;2023-05-12T09:15:06;-14922.56;;;-144.67;100.00
21877;BME280;11103;43.788;23.710;2023-05-12T09:17:34;-14922.56;;;-144.67;100.00
21877;BME280;11103;43.788;23.710;2023-05-12T09:19:59;-14922.56;;;-144.67;100.00
21877;BME280;11103;43.788;23.710;2023-05-12T09:22:32;-14922.56;;;-144.67;100.00
21877;BME280;11103;43.788;23.710;2023-05-12T09:24:59;-14922.56;;;-144.67;100.00
21877;BME280;11103;43.788;23.710;2023-05-12T09:27:28;-14922.56;;;-144.67;100.00
21877;BME280;11103;43.788;23.710;2023-05-12T09:29:54;-14922.56;;;-144.67;100.00
21877;BME280;11103;43.788;23.710;2023-05-12T09:32:33;-14922.56;;;-144.67;100.00
21877;BME280;11103;43.788;23.710;2023-05-12T09:35:07;-14922.56;;;-144.67;100.00
21877;BME280;11103;43.788;23.710;2023-05-12T09:37:36;-14922.56;;;-144.67;100.00
21877;BME280;11103;43.788;23.710;2023-05-12T09:40:03;-14922.56;;;-144.67;100.00
21877;BME280;11103;43.788;23.710;2023-05-12T09:42:32;-14922.56;;;-144.67;100.00
21877;BME280;11103;43.788;23.710;2023-05-12T09:45:05;-14922.56;;;-144.67;100.00
21877;BME280;11103;43.788;23.710;2023-05-12T09:47:38;-14922.56;;;-144.67;100.00
21877;BME280;11103;43.788;23.710;2023-05-12T09:50:06;-14922.56;;;-144.67;100.00
21877;BME280;11103;43.788;23.710;2023-05-12T09:52:36;-14922.56;;;-144.67;100.00
21877;BME280;11103;43.788;23.710;2023-05-12T09:55:07;-14922.56;;;-144.67;100.00
21877;BME280;11103;43.788;23.710;2023-05-12T09:57:43;-14922.56;;;-144.67;100.00
21877;BME280;11103;43.788;23.710;2023-05-12T10:00:13;-14922.56;;;-144.67;100.00
21877;BME280;11103;43.788;23.710;2023-05-12T10:02:41;-14922.56;;;-144.67;100.00
21877;BME280;11103;43.788;23.710;2023-05-12T10:05:13;-14922.56;;;-144.67;100.00
21877;BME280;11103;43.788;23.710;2023-05-12T10:07:44;-14922.56;;;-144.67;100.00
21877;BME280;11103;43.788;23.710;2023-05-12T10:10:14;-14922.56;;;-144.67;100.00
21877;BME280;11103;43.788;23.710;2023-05-12T10:12:41;-14922.56;;;-144.67;100.00
21877;BME280;11103;43.788;23.710;2023-05-12T10:15:08;-14922.56;;;-144.67;100.00
21877;BME280;11103;43.788;23.710;2023-05-12T10:17:35;-14922.56;;;-144.67;100.00
21877;BME280;11103;43.788;23.710;2023-05-12T10:20:02;-14922.56;;;-144.67;100.00
21877;BME280;11103;43.788;23.710;2023-05-12T10:22:37;-14922.56;;;-144.67;100.00
21877;BME280;11103;43.788;23.710;2023-05-12T10:25:02;-14922.56;;;-144.67;100.00
21877;BME280;11103;43.788;23.710;2023-05-12T10:27:31;-14922.56;;;-144.67;100.00
21877;BME280;11103;43.788;23.710;2023-05-12T10:29:59;-14922.56;;;-144.67;100.00
21877;BME280;11103;43.788;23.710;2023-05-12T10:32:25;-14675.47;;;-144.67;100.00
21877;BME280;11103;43.788;23.710;2023-05-12T10:34:51;-14429.81;;;-144.67;100.00
21877;BME280;11103;43.788;23.710;2023-05-12T10:37:16;-13201.22;;;-144.67;100.00
21877;BME280;11103;43.788;23.710;2023-05-12T10:39:50;-14921.13;;;-144.67;100.00
21877;BME280;11103;43.788;23.710;2023-05-12T10:42:20;-14921.13;;;-144.67;100.00
21877;BME280;11103;43.788;23.710;2023-05-12T10:44:53;-14184.13;;;-144.67;100.00
21877;BME280;11103;43.788;23.710;2023-05-12T10:47:23;-12463.84;;;-144.67;100.00
21877;BME280;11103;43.788;23.710;2023-05-12T10:49:55;-11972.16;;;-144.67;100.00
21877;BME280;11103;43.788;23.710;2023-05-12T10:52:22;-13201.22;;;-144.67;100.00
21877;BME280;11103;43.788;23.710;2023-05-12T10:54:48;-10742.63;;;-144.67;100.00
21877;BME280;11103;43.788;23.710;2023-05-12T10:57:18;-11234.50;;;-144.67;100.00
21877;BME280;11103;43.788;23.710;2023-05-12T10:59:49;-4834.41;;;-144.67;100.00
21877;BME280;11103;43.788;23.710;2023-05-12T11:02:17;-9512.63;;;-144.67;100.00
21877;BME280;11103;43.788;23.710;2023-05-12T11:04:47;-9758.66;;;-144.67;100.00
21877;BME280;11103;43.788;23.710;2023-05-12T11:07:14;-10250.69;;;-144.67;100.00
21877;BME280;11103;43.788;23.710;2023-05-12T11:09:44;-10004.69;;;-144.67;100.00
21877;BME280;11103;43.788;23.710;2023-05-12T11:12:11;-10988.56;;;-144.67;100.00
21877;BME280;11103;43.788;23.710;2023-05-12T11:14:38;-9512.63;;;-144.67;100.00
21877;BME280;11103;43.788;23.710;2023-05-12T11:17:04;-9512.63;;;-144.67;100.00
21877;BME280;11103;43.788;23.710;2023-05-12T11:19:31;-6066.19;;;-144.67;100.00
21877;BME280;11103;43.788;23.710;2023-05-12T11:21:57;-8528.28;;;-144.67;100.00
21877;BME280;11103;43.788;23.710;2023-05-12T11:24:23;-4834.41;;;-144.67;100.00
21877;BME280;11103;43.788;23.710;2023-05-12T11:26:49;-6066.19;;;-144.67;100.00
21877;BME280;11103;43.788;23.710;2023-05-12T11:29:18;-3355.69;;;-144.67;100.00
21877;BME280;11103;43.788;23.710;2023-05-12T11:31:48;-10250.69;;;-144.67;100.00
21877;BME280;11103;43.788;23.710;2023-05-12T11:34:14;-6312.47;;;-144.67;100.00
21877;BME280;11103;43.788;23.710;2023-05-12T11:36:41;-396.25;;;-144.67;100.00
21877;BME280;11103;43.788;23.710;2023-05-12T11:39:12;-1876.31;;;-144.67;100.00
21877;BME280;11103;43.788;23.710;2023-05-12T11:41:39;-9758.66;;;-144.67;100.00
21877;BME280;11103;43.788;23.710;2023-05-12T11:44:31;-9020.50;;;-144.67;100.00
21877;BME280;11103;43.788;23.710;2023-05-12T11:49:23;-149.50;;;-144.67;100.00
21877;BME280;11103;43.788;23.710;2023-05-12T11:52:00;590.84;;;-144.67;100.00
21877;BME280;11103;43.788;23.710;2023-05-12T11:54:29;7014.09;;;-144.67;100.00
21877;BME280;11103;43.788;23.710;2023-05-12T11:56:56;12211.25;;;-144.67;100.00
21877;BME280;11103;43.788;23.710;2023-05-12T11:59:29;7261.38;;;-144.67;100.00
21877;BME280;11103;43.788;23.710;2023-05-12T12:02:02;1578.22;;;-144.67;100.00
21877;BME280;11103;43.788;23.710;2023-05-12T12:04:37;-5080.81;;;-144.67;100.00
21877;BME280;11103;43.788;23.710;2023-05-12T12:07:04;4047.94;;;-144.67;100.00
21877;BME280;11103;43.788;23.710;2023-05-12T12:09:34;1578.22;;;-144.67;100.00
21877;BME280;11103;43.788;23.710;2023-05-12T12:12:01;9982.91;;;-144.67;100.00
21877;BME280;11103;43.788;23.710;2023-05-12T12:14:27;16920.53;;;-144.67;100.00
21877;BME280;11103;43.788;23.710;2023-05-12T12:16:54;23375.66;;;-144.67;100.00